Time;durP1;ratioP1;P1;durP2;ratioP2;P2;SDS_P1;SDS_P2;PMS_P1;PMS_P2;Temp;Humidity;BMP_temperature;BMP_pressure;BME280_temperature;BME280_humidity;BME280_pressure;Samples;Min_cycle;Max_cycle;Signal;HPM_P1;HPM_P2
2021/09/05 00:01:33;;;;;;;32.53;19.20;;;13.40;99.90;;;;;;5033223;28;20210;-63
2021/09/05 00:04:01;;;;;;;34.83;20.70;;;13.30;99.90;;;;;;5032906;28;20955;-63
2021/09/05 00:06:29;;;;;;;34.60;20.93;;;13.20;99.90;;;;;;5033419;28;20206;-62
2021/09/05 00:08:56;;;;;;;33.07;20.40;;;13.20;99.90;;;;;;5033237;28;20557;-63
2021/09/05 00:11:23;;;;;;;32.03;20.67;;;13.20;99.90;;;;;;5033174;28;20206;-63
2021/09/05 00:13:49;;;;;;;31.10;20.00;;;13.20;99.90;;;;;;5032727;28;20256;-63
2021/09/05 00:16:16;;;;;;;34.30;21.57;;;13.20;99.90;;;;;;5032997;28;20206;-63
2021/09/05 00:18:43;;;;;;;35.93;21.33;;;13.10;99.90;;;;;;5033175;28;20213;-63
2021/09/05 00:21:10;;;;;;;30.80;20.47;;;13.20;99.90;;;;;;5033121;28;20206;-62
2021/09/05 00:23:37;;;;;;;35.10;20.77;;;13.10;99.90;;;;;;5032627;28;20225;-63
2021/09/05 00:26:04;;;;;;;34.47;19.97;;;13.10;99.90;;;;;;5032883;28;20682;-63
2021/09/05 00:28:30;;;;;;;36.23;20.47;;;13.20;99.90;;;;;;5032663;28;20210;-63
2021/09/05 00:30:57;;;;;;;36.43;21.17;;;13.10;99.90;;;;;;5032787;28;20214;-62
2021/09/05 00:33:24;;;;;;;39.33;20.87;;;13.10;99.90;;;;;;5032799;28;20234;-63
2021/09/05 00:35:50;;;;;;;38.57;21.27;;;13.00;99.90;;;;;;5032934;28;20210;-63
2021/09/05 00:38:18;;;;;;;34.43;21.00;;;13.00;99.90;;;;;;5032808;28;20689;-63
2021/09/05 00:40:45;;;;;;;34.17;20.10;;;13.00;99.90;;;;;;5032517;28;20268;-63
2021/09/05 00:43:11;;;;;;;32.53;20.00;;;13.00;99.90;;;;;;5032302;28;20276;-62
2021/09/05 00:45:38;;;;;;;35.53;20.93;;;13.00;99.90;;;;;;5032202;28;20265;-63
2021/09/05 00:48:05;;;;;;;29.70;19.67;;;13.00;99.90;;;;;;5032632;28;20672;-63
2021/09/05 00:50:32;;;;;;;33.13;20.13;;;12.90;99.90;;;;;;5032528;28;20206;-63
2021/09/05 00:52:59;;;;;;;33.57;20.47;;;12.90;99.90;;;;;;5032244;28;20241;-63
2021/09/05 00:55:28;;;;;;;31.87;18.43;;;12.90;99.90;;;;;;5032323;28;20209;-63
2021/09/05 00:57:54;;;;;;;31.57;19.50;;;12.90;99.90;;;;;;5032026;28;20216;-63
2021/09/05 01:00:24;;;;;;;37.17;20.57;;;12.80;99.90;;;;;;5032248;28;20260;-63
2021/09/05 01:02:51;;;;;;;30.27;20.00;;;12.80;99.90;;;;;;5032170;28;20225;-63
2021/09/05 01:05:18;;;;;;;31.87;21.43;;;12.80;99.90;;;;;;5032106;28;20256;-63
2021/09/05 01:07:45;;;;;;;31.37;20.17;;;12.80;99.90;;;;;;5032363;28;20206;-63
2021/09/05 01:10:13;;;;;;;37.97;21.20;;;12.80;99.90;;;;;;5032271;28;20272;-63
2021/09/05 01:12:41;;;;;;;34.80;21.33;;;12.70;99.90;;;;;;5031785;28;20603;-63
2021/09/05 01:15:09;;;;;;;33.70;20.60;;;12.70;99.90;;;;;;5032114;28;20287;-65
2021/09/05 01:17:37;;;;;;;37.73;22.20;;;12.60;99.90;;;;;;5032095;28;20256;-63
2021/09/05 01:20:05;;;;;;;36.73;22.70;;;12.60;1.00;;;;;;5032161;28;20302;-63
2021/09/05 01:22:32;;;;;;;38.13;22.67;;;12.60;1.00;;;;;;5031816;28;20724;-63
2021/09/05 01:24:59;;;;;;;40.53;24.27;;;12.60;1.00;;;;;;5031820;28;20229;-63
2021/09/05 01:27:27;;;;;;;41.20;23.50;;;12.60;1.00;;;;;;5032093;28;20215;-63
2021/09/05 01:29:54;;;;;;;37.47;23.23;;;12.50;1.00;;;;;;5032146;28;20214;-63
2021/09/05 01:32:21;;;;;;;38.50;22.27;;;12.50;1.00;;;;;;5032054;28;20275;-63
2021/09/05 01:34:47;;;;;;;36.03;22.07;;;12.50;1.00;;;;;;5031539;28;20259;-63
2021/09/05 01:37:14;;;;;;;39.33;21.80;;;12.50;1.00;;;;;;5031751;28;20211;-63
2021/09/05 01:39:41;;;;;;;38.10;21.50;;;12.60;1.00;;;;;;5031692;28;20214;-62
2021/09/05 01:42:07;;;;;;;37.73;22.73;;;12.50;1.00;;;;;;5031871;28;20212;-63
2021/09/05 01:44:35;;;;;;;40.00;22.83;;;12.50;1.00;;;;;;5031618;28;20229;-63
2021/09/05 01:47:02;;;;;;;35.07;20.90;;;12.50;1.00;;;;;;5032083;28;20204;-63
2021/09/05 01:49:29;;;;;;;42.90;21.57;;;12.50;1.00;;;;;;5031556;28;20213;-63
2021/09/05 01:51:55;;;;;;;38.47;22.60;;;12.40;1.00;;;;;;5031547;28;20212;-63
2021/09/05 01:54:22;;;;;;;41.13;21.77;;;12.40;1.00;;;;;;5031257;28;20292;-63
2021/09/05 01:56:48;;;;;;;42.03;22.17;;;12.40;1.00;;;;;;5031816;28;20258;-63
2021/09/05 01:59:15;;;;;;;39.00;21.97;;;12.40;1.00;;;;;;5031550;28;20671;-62
2021/09/05 02:01:43;;;;;;;43.63;24.63;;;12.30;1.00;;;;;;5031769;28;20213;-63
2021/09/05 02:04:10;;;;;;;37.67;21.50;;;12.30;1.00;;;;;;5031348;28;20222;-63
2021/09/05 02:06:36;;;;;;;35.90;21.13;;;12.30;1.00;;;;;;5031549;28;20210;-63
2021/09/05 02:09:03;;;;;;;37.67;21.87;;;12.30;1.00;;;;;;5032674;28;20218;-63
2021/09/05 02:11:29;;;;;;;38.33;21.23;;;12.40;1.00;;;;;;5035386;28;20204;-63
2021/09/05 02:13:57;;;;;;;39.77;22.00;;;12.30;1.00;;;;;;5035216;28;20245;-63
2021/09/05 02:16:23;;;;;;;40.80;21.93;;;12.20;1.00;;;;;;5035321;28;20352;-63
2021/09/05 02:18:51;;;;;;;50.37;23.70;;;12.20;1.00;;;;;;5035199;28;20259;-63
2021/09/05 02:21:18;;;;;;;46.67;23.13;;;12.10;1.00;;;;;;5034904;28;20213;-63
2021/09/05 02:23:45;;;;;;;38.93;22.60;;;12.10;1.00;;;;;;5035305;28;20219;-63
2021/09/05 02:26:11;;;;;;;44.37;23.30;;;12.10;1.00;;;;;;5035193;28;20220;-63
2021/09/05 02:28:38;;;;;;;39.63;21.20;;;12.10;1.00;;;;;;5035203;28;20216;-63
2021/09/05 02:31:05;;;;;;;45.57;22.97;;;12.10;1.00;;;;;;5034999;28;20270;-63
2021/09/05 02:33:31;;;;;;;47.07;23.03;;;12.10;1.00;;;;;;5034735;28;20230;-63
2021/09/05 02:36:00;;;;;;;48.93;24.67;;;12.00;1.00;;;;;;5034653;28;20254;-62
2021/09/05 02:38:26;;;;;;;49.30;24.83;;;12.00;1.00;;;;;;5035481;28;20213;-62
2021/09/05 02:40:53;;;;;;;47.97;24.00;;;12.00;1.00;;;;;;5035265;28;20208;-63
2021/09/05 02:43:20;;;;;;;48.73;23.83;;;12.00;1.00;;;;;;5034987;28;20232;-63
2021/09/05 02:45:46;;;;;;;42.23;23.77;;;12.00;1.00;;;;;;5035066;28;20636;-63
2021/09/05 02:48:13;;;;;;;53.27;25.33;;;12.00;1.00;;;;;;5034967;28;20211;-63
2021/09/05 02:50:40;;;;;;;50.80;25.30;;;11.90;16.10;;;;;;5035034;28;20206;-63
2021/09/05 02:53:08;;;;;;;45.00;23.43;;;11.90;37.60;;;;;;5034581;28;20245;-63
2021/09/05 02:55:35;;;;;;;45.20;23.10;;;11.90;37.60;;;;;;5034537;28;20272;-63
2021/09/05 02:58:02;;;;;;;42.70;22.90;;;11.90;38.60;;;;;;5034579;28;20213;-63
2021/09/05 03:00:29;;;;;;;47.23;23.57;;;11.90;40.60;;;;;;5034630;28;20206;-62
2021/09/05 03:02:55;;;;;;;46.47;23.13;;;11.90;40.30;;;;;;5034200;28;20230;-63
2021/09/05 03:05:22;;;;;;;45.37;22.63;;;11.90;38.50;;;;;;5034456;28;20271;-63
2021/09/05 03:07:48;;;;;;;45.43;23.30;;;11.90;38.90;;;;;;5034550;28;20262;-63
2021/09/05 03:10:16;;;;;;;46.67;23.03;;;11.80;47.10;;;;;;5034196;28;20655;-62
2021/09/05 03:12:43;;;;;;;40.67;23.00;;;11.80;43.60;;;;;;5034199;28;20644;-62
2021/09/05 03:15:10;;;;;;;41.23;22.80;;;11.90;35.90;;;;;;5033728;28;20763;-62
2021/09/05 03:17:37;;;;;;;47.43;23.47;;;11.90;26.20;;;;;;5034291;28;20649;-62
2021/09/05 03:20:04;;;;;;;43.77;23.83;;;11.90;24.40;;;;;;5034192;28;20262;-63
2021/09/05 03:22:31;;;;;;;42.20;22.67;;;11.90;15.90;;;;;;5034167;28;20280;-62
2021/09/05 03:24:58;;;;;;;44.03;24.00;;;11.90;16.80;;;;;;5033909;28;20260;-62
2021/09/05 03:27:26;;;;;;;44.67;23.37;;;11.90;13.10;;;;;;5034134;28;20209;-63
2021/09/05 03:29:52;;;;;;;49.70;23.70;;;11.80;13.20;;;;;;5033848;28;20246;-63
2021/09/05 03:32:19;;;;;;;48.30;25.50;;;11.80;15.90;;;;;;5034136;28;20622;-63
2021/09/05 03:34:45;;;;;;;48.33;23.67;;;11.80;10.60;;;;;;5033730;28;20276;-62
2021/09/05 03:37:12;;;;;;;47.23;25.03;;;11.80;1.00;;;;;;5033902;28;20636;-63
2021/09/05 03:39:39;;;;;;;55.53;24.63;;;11.80;1.00;;;;;;5033870;28;20202;-63
2021/09/05 03:42:05;;;;;;;56.57;26.13;;;11.80;1.00;;;;;;5033642;28;20210;-63
2021/09/05 03:44:33;;;;;;;64.10;27.70;;;11.70;2.10;;;;;;5033910;28;20238;-63
2021/09/05 03:47:00;;;;;;;66.23;29.60;;;11.60;30.00;;;;;;5036484;28;20260;-63
2021/09/05 03:49:28;;;;;;;60.50;27.37;;;11.60;50.60;;;;;;5036141;28;20209;-64
2021/09/05 03:51:55;;;;;;;66.90;29.53;;;11.60;59.40;;;;;;5034020;28;20580;-64
2021/09/05 03:54:21;;;;;;;68.10;28.03;;;11.60;80.70;;;;;;5033837;28;20226;-64
2021/09/05 03:56:48;;;;;;;63.57;27.40;;;11.60;91.00;;;;;;5036916;28;20204;-64
2021/09/05 03:59:14;;;;;;;58.83;26.77;;;11.60;96.80;;;;;;5036337;28;20254;-62
2021/09/05 04:01:42;;;;;;;54.67;26.90;;;11.60;94.80;;;;;;5036850;28;20231;-62
2021/09/05 04:04:09;;;;;;;60.33;28.43;;;11.60;92.40;;;;;;5036417;28;20222;-65
2021/09/05 04:06:36;;;;;;;53.40;26.80;;;11.60;90.40;;;;;;5036407;28;20257;-63
2021/09/05 04:09:09;;;;;;;51.27;26.03;;;11.60;88.30;;;;;;5035942;28;20740;-63
2021/09/05 04:11:36;;;;;;;48.40;25.97;;;11.60;84.00;;;;;;5035759;28;20206;-64
2021/09/05 04:14:02;;;;;;;51.57;25.57;;;11.70;76.40;;;;;;5034866;28;20231;-62
2021/09/05 04:16:29;;;;;;;51.27;26.07;;;11.70;71.60;;;;;;5034481;28;20279;-64
2021/09/05 04:18:58;;;;;;;54.87;26.50;;;11.70;60.70;;;;;;5033957;28;20272;-63
2021/09/05 04:21:24;;;;;;;54.17;26.20;;;11.60;54.70;;;;;;5033960;28;20220;-63
2021/09/05 04:23:51;;;;;;;66.17;27.57;;;11.60;55.50;;;;;;5033355;28;20223;-63
2021/09/05 04:26:18;;;;;;;64.73;28.83;;;11.50;68.00;;;;;;5033489;28;20254;-63
2021/09/05 04:28:44;;;;;;;61.90;27.77;;;11.50;83.10;;;;;;5033581;28;20212;-63
2021/09/05 04:31:11;;;;;;;74.67;29.90;;;11.50;84.70;;;;;;5032678;28;20648;-62
2021/09/05 04:33:37;;;;;;;70.83;29.27;;;11.40;90.50;;;;;;5032366;28;20230;-63
2021/09/05 04:36:05;;;;;;;70.47;31.50;;;11.40;92.90;;;;;;5033067;28;20237;-62
2021/09/05 04:38:32;;;;;;;69.80;35.20;;;11.40;96.30;;;;;;5032453;28;20465;-63
2021/09/05 04:40:59;;;;;;;68.63;34.13;;;11.40;93.40;;;;;;5032317;28;20206;-62
2021/09/05 04:43:25;;;;;;;54.93;30.93;;;11.50;90.40;;;;;;5032516;28;20225;-62
2021/09/05 04:45:52;;;;;;;58.50;31.00;;;11.50;89.80;;;;;;5032385;28;20222;-62
2021/09/05 04:48:18;;;;;;;61.07;29.47;;;11.50;80.80;;;;;;5032664;28;20204;-63
2021/09/05 04:50:46;;;;;;;59.93;29.00;;;11.40;83.60;;;;;;5032405;28;20266;-63
2021/09/05 04:53:14;;;;;;;57.53;26.93;;;11.40;88.50;;;;;;5032251;28;20270;-62
2021/09/05 04:55:41;;;;;;;62.73;27.10;;;11.30;90.20;;;;;;5032374;28;20222;-63
2021/09/05 04:58:07;;;;;;;68.27;27.23;;;11.20;91.70;;;;;;5032581;28;20211;-63
2021/09/05 05:00:34;;;;;;;67.13;28.37;;;11.20;96.30;;;;;;5032374;28;20585;-63
2021/09/05 05:03:00;;;;;;;60.93;27.73;;;11.10;99.90;;;;;;5032313;28;20227;-63
2021/09/05 05:05:27;;;;;;;62.27;27.00;;;11.20;99.90;;;;;;5031855;28;20210;-63
2021/09/05 05:07:54;;;;;;;65.87;26.47;;;11.20;99.90;;;;;;5031978;28;20213;-63
2021/09/05 05:10:23;;;;;;;71.77;28.87;;;11.10;99.90;;;;;;5032350;28;20214;-63
2021/09/05 05:12:49;;;;;;;76.47;27.80;;;11.00;99.90;;;;;;5032011;28;20226;-63
2021/09/05 05:15:16;;;;;;;76.10;28.63;;;11.00;99.90;;;;;;5031976;28;20838;-63
2021/09/05 05:17:42;;;;;;;71.87;29.10;;;11.00;99.90;;;;;;5031926;28;20210;-63
2021/09/05 05:20:11;;;;;;;69.70;28.67;;;11.00;99.90;;;;;;5032098;28;20257;-63
2021/09/05 05:22:38;;;;;;;74.13;28.97;;;11.10;99.90;;;;;;5031664;28;20216;-63
2021/09/05 05:25:06;;;;;;;80.80;29.13;;;11.10;99.90;;;;;;5032059;28;20207;-63
2021/09/05 05:27:34;;;;;;;66.33;29.20;;;11.10;99.90;;;;;;5031803;28;20627;-62
2021/09/05 05:30:00;;;;;;;70.97;28.33;;;11.20;99.90;;;;;;5032036;28;20256;-62
2021/09/05 05:32:27;;;;;;;72.60;28.83;;;11.20;99.90;;;;;;5031841;28;20202;-63
2021/09/05 05:34:53;;;;;;;64.50;27.57;;;11.20;99.90;;;;;;5031613;28;20280;-63
2021/09/05 05:37:20;;;;;;;67.00;28.67;;;11.20;99.90;;;;;;5032427;28;20248;-63
2021/09/05 05:39:47;;;;;;;62.53;27.67;;;11.20;99.90;;;;;;5031949;28;20206;-63
2021/09/05 05:42:13;;;;;;;64.73;27.43;;;11.30;99.90;;;;;;5031899;28;20284;-63
2021/09/05 05:44:41;;;;;;;70.67;28.87;;;11.40;99.90;;;;;;5033927;28;20268;-63
2021/09/05 05:47:08;;;;;;;67.50;29.50;;;11.30;99.90;;;;;;5035906;28;20279;-63
2021/09/05 05:49:35;;;;;;;72.53;31.07;;;11.30;99.90;;;;;;5035603;28;20256;-63
2021/09/05 05:52:02;;;;;;;69.80;29.20;;;11.40;99.90;;;;;;5036023;28;20210;-63
2021/09/05 05:54:29;;;;;;;72.83;31.67;;;11.40;99.90;;;;;;5035192;28;20238;-63
2021/09/05 05:56:55;;;;;;;67.37;30.93;;;11.40;99.90;;;;;;5035792;28;20213;-63
2021/09/05 05:59:22;;;;;;;77.40;30.93;;;11.40;99.90;;;;;;5045484;28;20201;-63
2021/09/05 06:01:50;;;;;;;71.60;31.70;;;11.50;99.90;;;;;;5055559;28;20259;-63
2021/09/05 06:04:16;;;;;;;71.27;31.63;;;11.50;99.90;;;;;;5054953;28;20229;-63
2021/09/05 06:06:43;;;;;;;70.43;31.03;;;11.50;99.90;;;;;;5055601;28;20270;-63
2021/09/05 06:09:10;;;;;;;73.60;30.50;;;11.60;99.90;;;;;;5055489;28;20205;-63
2021/09/05 06:11:36;;;;;;;68.63;30.60;;;11.60;99.90;;;;;;5055225;28;20202;-63
2021/09/05 06:14:03;;;;;;;70.17;30.40;;;11.70;99.90;;;;;;5055027;28;20726;-62
2021/09/05 06:16:30;;;;;;;60.60;30.33;;;11.70;99.90;;;;;;5054977;28;20236;-62
2021/09/05 06:18:58;;;;;;;61.87;29.47;;;11.80;99.90;;;;;;5055027;28;20259;-63
2021/09/05 06:21:24;;;;;;;61.93;30.67;;;11.90;99.90;;;;;;5055053;28;20755;-62
2021/09/05 06:23:51;;;;;;;58.30;28.90;;;11.90;99.90;;;;;;5055051;28;20580;-62
2021/09/05 06:26:17;;;;;;;61.47;30.33;;;11.90;99.90;;;;;;5055021;28;20206;-62
2021/09/05 06:28:44;;;;;;;63.73;31.23;;;11.90;99.90;;;;;;5054958;28;20206;-62
2021/09/05 06:31:11;;;;;;;59.40;30.33;;;11.90;99.90;;;;;;5054791;28;20209;-62
2021/09/05 06:33:37;;;;;;;56.27;28.63;;;12.00;99.90;;;;;;5054360;28;20748;-62
2021/09/05 06:36:06;;;;;;;54.20;27.90;;;12.10;99.90;;;;;;5054922;28;20226;-62
2021/09/05 06:38:32;;;;;;;49.13;27.00;;;12.10;99.90;;;;;;5054840;28;20203;-62
2021/09/05 06:40:59;;;;;;;47.83;26.43;;;12.20;99.90;;;;;;5054869;28;20562;-63
2021/09/05 06:43:26;;;;;;;45.37;25.57;;;12.30;99.90;;;;;;5054432;28;20231;-63
2021/09/05 06:45:52;;;;;;;42.43;25.20;;;12.40;99.90;;;;;;5054680;28;20387;-62
2021/09/05 06:48:19;;;;;;;42.63;25.40;;;12.50;99.90;;;;;;5054636;28;20287;-63
2021/09/05 06:50:46;;;;;;;41.07;24.87;;;12.60;99.90;;;;;;5054723;28;20264;-62
2021/09/05 06:53:14;;;;;;;42.70;24.80;;;12.70;99.90;;;;;;5054286;28;20289;-62
2021/09/05 06:55:41;;;;;;;38.97;22.87;;;12.80;99.90;;;;;;5053724;28;20687;-62
2021/09/05 06:58:08;;;;;;;47.23;29.33;;;12.90;99.90;;;;;;5054354;28;20201;-62
2021/09/05 07:00:34;;;;;;;41.17;23.93;;;12.90;1.00;;;;;;5048606;28;20214;-65
2021/09/05 07:03:01;;;;;;;36.83;23.07;;;13.00;1.00;;;;;;5033635;28;20221;-62
2021/09/05 07:05:27;;;;;;;33.87;22.27;;;13.10;1.00;;;;;;5033811;28;20199;-62
2021/09/05 07:07:56;;;;;;;34.40;21.47;;;13.20;1.00;;;;;;5034202;28;20264;-61
2021/09/05 07:10:24;;;;;;;31.77;20.77;;;13.30;1.00;;;;;;5034049;28;20365;-61
2021/09/05 07:12:51;;;;;;;34.50;22.23;;;13.40;1.00;;;;;;5033515;28;20230;-61
2021/09/05 07:15:18;;;;;;;29.47;20.17;;;13.50;1.00;;;;;;5033785;28;20226;-61
2021/09/05 07:17:45;;;;;;;30.80;20.40;;;13.60;1.00;;;;;;5033966;28;20202;-61
2021/09/05 07:20:12;;;;;;;31.50;22.27;;;13.80;99.90;;;;;;5033819;28;20257;-61
2021/09/05 07:22:39;;;;;;;29.33;19.50;;;13.90;99.90;;;;;;5033514;28;20214;-60
2021/09/05 07:25:07;;;;;;;27.63;19.20;;;14.00;58.40;;;;;;5033530;28;20268;-61
2021/09/05 07:27:35;;;;;;;32.43;21.77;;;14.10;99.90;;;;;;5033271;28;20229;-62
2021/09/05 07:30:02;;;;;;;29.30;19.53;;;14.20;1.00;;;;;;5034139;28;20214;-62
2021/09/05 07:32:29;;;;;;;29.70;19.93;;;14.30;99.90;;;;;;5033214;28;20211;-62
2021/09/05 07:34:55;;;;;;;29.50;19.20;;;14.40;18.70;;;;;;5033421;28;20237;-62
2021/09/05 07:37:22;;;;;;;32.07;20.13;;;14.50;99.90;;;;;;5033364;28;20206;-62
2021/09/05 07:39:49;;;;;;;29.50;20.07;;;14.60;93.50;;;;;;5033489;28;20737;-62
2021/09/05 07:42:16;;;;;;;31.03;18.90;;;14.70;99.90;;;;;;5032832;28;20260;-62
2021/09/05 07:44:44;;;;;;;27.67;18.50;;;14.80;99.90;;;;;;5033346;28;20443;-64
2021/09/05 07:47:10;;;;;;;25.43;17.63;;;14.90;52.00;;;;;;5033457;28;20271;-63
2021/09/05 07:49:37;;;;;;;28.37;19.23;;;14.90;1.00;;;;;;5033222;28;20260;-61
2021/09/05 07:52:04;;;;;;;24.40;17.43;;;15.00;99.90;;;;;;5032743;28;20207;-61
2021/09/05 07:54:31;;;;;;;25.97;17.77;;;15.00;1.00;;;;;;5032513;28;20291;-62
2021/09/05 07:56:57;;;;;;;27.20;17.17;;;15.10;1.00;;;;;;5033018;28;20230;-62
2021/09/05 07:59:24;;;;;;;28.33;18.03;;;15.20;1.00;;;;;;5033011;28;20207;-61
2021/09/05 08:01:52;;;;;;;27.07;17.77;;;15.30;1.00;;;;;;5032768;28;20260;-62
2021/09/05 08:04:18;;;;;;;25.37;17.47;;;15.40;99.90;;;;;;5032628;28;20230;-62
2021/09/05 08:06:45;;;;;;;24.50;16.57;;;15.60;99.90;;;;;;5032041;28;20210;-59
2021/09/05 08:09:12;;;;;;;20.10;15.30;;;15.80;99.90;;;;;;5032543;28;20206;-62
2021/09/05 08:11:38;;;;;;;21.63;15.73;;;16.00;1.00;;;;;;5032355;28;20810;-62
2021/09/05 08:14:05;;;;;;;22.60;16.90;;;16.10;1.00;;;;;;5358646;22;20707;-63
2021/09/05 08:16:33;;;;;;;25.43;16.20;;;16.30;82.70;;;;;;5013091;28;20227;-62
2021/09/05 08:19:01;;;;;;;21.67;14.80;;;16.40;99.90;;;;;;5013044;28;20250;-62
2021/09/05 08:21:27;;;;;;;28.93;19.33;;;16.50;99.90;;;;;;5012518;28;20265;-62
2021/09/05 08:26:29;;;;;;;21.97;15.43;;;16.70;99.90;;;;;;5385383;23;20234;-62
2021/09/05 08:28:56;;;;;;;22.77;15.63;;;16.80;99.90;;;;;;5012862;28;20214;-62
2021/09/05 08:31:22;;;;;;;23.53;15.70;;;17.10;99.90;;;;;;5012527;28;20207;-62
2021/09/05 08:33:49;;;;;;;24.60;15.30;;;17.30;85.90;;;;;;5012182;28;20226;-62
2021/09/05 08:36:17;;;;;;;19.90;14.60;;;17.40;1.00;;;;;;5012453;28;20230;-62
2021/09/05 08:38:44;;;;;;;24.53;15.33;;;17.50;99.90;;;;;;5012618;28;20261;-62
2021/09/05 08:41:11;;;;;;;23.67;15.57;;;17.60;99.90;;;;;;5012638;28;20242;-62
2021/09/05 08:46:14;;;;;;;22.80;13.70;;;17.70;99.90;;;;;;5446320;23;20591;-62
2021/09/05 08:48:42;;;;;;;22.57;14.60;;;17.80;99.90;;;;;;5012243;28;20211;-62
2021/09/05 08:51:09;;;;;;;19.97;14.37;;;17.90;99.90;;;;;;5012328;28;20218;-62
2021/09/05 09:01:29;;;;;;;22.53;14.23;;;18.60;99.90;;;;;;5767004;23;20238;-65
2021/09/05 09:04:05;;;;;;;20.07;13.60;;;18.70;91.60;;;;;;5011700;28;20227;-62
2021/09/05 09:06:37;;;;;;;18.33;13.97;;;18.70;1.00;;;;;;5012014;28;20203;-62
2021/09/05 09:09:04;;;;;;;17.50;12.77;;;18.60;1.00;;;;;;5012081;28;20731;-63
2021/09/05 09:11:50;;;;;;;20.60;14.50;;;18.80;1.00;;;;;;5011599;28;20211;-62
2021/09/05 09:14:17;;;;;;;22.10;14.93;;;18.90;9.60;;;;;;5011678;28;20657;-61
2021/09/05 09:16:45;;;;;;;17.50;12.80;;;18.90;1.00;;;;;;5011708;28;20227;-62
2021/09/05 09:19:23;;;;;;;25.27;18.70;;;18.90;1.00;;;;;;5011750;28;20215;-61
2021/09/05 09:21:49;;;;;;;20.47;13.13;;;19.00;1.00;;;;;;5011633;28;20253;-63
2021/09/05 09:24:18;;;;;;;25.07;17.83;;;19.00;1.00;;;;;;5011043;28;20234;-63
2021/09/05 09:26:56;;;;;;;18.10;12.23;;;19.00;1.00;;;;;;5011962;28;20302;-62
2021/09/05 09:29:23;;;;;;;20.50;13.27;;;19.00;1.00;;;;;;5011996;28;20206;-64
2021/09/05 09:32:02;;;;;;;21.53;13.37;;;18.90;1.00;;;;;;5011329;28;20217;-62
2021/09/05 09:34:29;;;;;;;18.30;13.27;;;19.00;1.00;;;;;;5011320;28;20277;-63
2021/09/05 09:36:58;;;;;;;19.53;12.77;;;19.10;1.00;;;;;;5011484;28;20234;-63
2021/09/05 09:39:27;;;;;;;21.97;13.23;;;19.20;1.00;;;;;;5011607;28;20330;-63
2021/09/05 09:41:54;;;;;;;19.87;13.17;;;19.30;1.00;;;;;;5011266;28;20211;-63
2021/09/05 09:44:20;;;;;;;18.00;12.77;;;19.40;1.00;;;;;;5011065;28;20234;-63
2021/09/05 09:46:47;;;;;;;19.30;13.20;;;19.60;1.00;;;;;;5011610;28;20203;-62
2021/09/05 09:49:15;;;;;;;17.13;12.10;;;19.60;1.00;;;;;;5011291;28;20203;-63
2021/09/05 09:51:42;;;;;;;19.87;12.63;;;19.80;1.00;;;;;;5011379;28;20207;-63
2021/09/05 09:54:09;;;;;;;17.80;12.40;;;19.80;1.00;;;;;;5010965;28;20222;-63
2021/09/05 09:56:36;;;;;;;15.53;12.47;;;19.80;1.00;;;;;;5011613;28;20234;-63
2021/09/05 09:59:06;;;;;;;18.73;14.37;;;19.90;1.00;;;;;;5011593;28;20620;-64
2021/09/05 10:01:34;;;;;;;20.33;12.33;;;20.10;1.00;;;;;;5010937;28;20219;-65
2021/09/05 10:04:03;;;;;;;18.37;11.83;;;20.20;1.00;;;;;;5011465;28;20289;-65
2021/09/05 10:06:32;;;;;;;17.37;12.63;;;20.30;1.00;;;;;;5011739;28;20330;-65
2021/09/05 10:09:01;;;;;;;15.23;11.07;;;20.30;1.00;;;;;;5011782;28;20206;-64
2021/09/05 10:11:29;;;;;;;19.83;11.60;;;20.30;1.00;;;;;;5011008;28;20207;-64
2021/09/05 10:13:58;;;;;;;18.10;11.20;;;20.40;1.00;;;;;;5009879;28;20639;-65
2021/09/05 10:16:25;;;;;;;15.83;10.40;;;20.20;1.00;;;;;;5009931;28;20608;-65
2021/09/05 10:18:54;;;;;;;16.83;13.43;;;20.30;1.00;;;;;;5011687;28;20235;-64
2021/09/05 10:21:22;;;;;;;19.40;11.90;;;20.50;1.00;;;;;;5010980;28;20261;-65
2021/09/05 10:23:52;;;;;;;16.87;12.67;;;20.50;1.00;;;;;;5011368;28;20285;-65
2021/09/05 10:26:20;;;;;;;15.80;11.77;;;20.60;1.00;;;;;;5011834;28;20214;-65
2021/09/05 10:28:48;;;;;;;17.53;12.33;;;20.60;1.00;;;;;;5011381;28;20214;-64
2021/09/05 10:31:23;;;;;;;16.20;11.57;;;20.70;1.00;;;;;;5014730;28;20207;-65
2021/09/05 10:33:50;;;;;;;19.60;11.63;;;20.70;1.00;;;;;;5014946;28;20227;-64
2021/09/05 10:36:18;;;;;;;16.20;11.07;;;20.80;1.00;;;;;;5015208;28;20223;-64
2021/09/05 10:38:46;;;;;;;15.13;11.60;;;21.00;1.00;;;;;;5015139;28;20210;-65
2021/09/05 10:41:24;;;;;;;15.07;11.03;;;20.90;1.00;;;;;;5015103;28;20268;-64
2021/09/05 10:44:03;;;;;;;16.37;11.63;;;21.10;1.00;;;;;;5014836;28;20601;-64
2021/09/05 10:46:32;;;;;;;15.43;10.70;;;21.10;1.00;;;;;;5015099;28;20249;-65
2021/09/05 10:49:00;;;;;;;15.10;11.07;;;21.20;1.00;;;;;;5015042;28;20219;-64
2021/09/05 10:51:29;;;;;;;14.40;11.93;;;21.30;1.00;;;;;;5014851;28;20211;-64
2021/09/05 10:53:57;;;;;;;14.30;11.10;;;21.40;1.00;;;;;;5014431;28;20314;-64
2021/09/05 10:56:26;;;;;;;20.03;11.60;;;21.50;1.00;;;;;;5014781;28;20277;-64
2021/09/05 10:58:55;;;;;;;15.90;11.43;;;21.60;1.00;;;;;;5014778;28;20246;-64
2021/09/05 11:01:24;;;;;;;15.70;11.37;;;21.40;1.00;;;;;;5014865;28;20206;-64
2021/09/05 11:04:19;;;;;;;13.40;10.80;;;21.50;1.00;;;;;;5014373;28;20227;-64
2021/09/05 11:06:47;;;;;;;16.37;11.53;;;21.40;1.00;;;;;;5014744;28;20727;-64
2021/09/05 11:09:44;;;;;;;15.67;11.03;;;21.50;1.00;;;;;;5014858;28;20284;-64
2021/09/05 11:12:28;;;;;;;17.63;10.87;;;21.60;1.00;;;;;;4935071;29;20272;-64
2021/09/05 11:14:56;;;;;;;17.63;11.10;;;21.80;1.00;;;;;;5002334;28;20211;-63
2021/09/05 11:17:24;;;;;;;16.63;11.60;;;21.80;1.00;;;;;;5014965;28;20285;-64
2021/09/05 11:19:52;;;;;;;14.30;10.80;;;21.70;1.00;;;;;;5014678;28;20207;-64
2021/09/05 11:22:20;;;;;;;16.57;11.43;;;21.80;1.00;;;;;;5014710;28;20265;-64
2021/09/05 11:25:03;;;;;;;15.07;11.00;;;21.80;1.00;;;;;;5010702;28;20831;-64
2021/09/05 11:27:31;;;;;;;15.13;11.60;;;21.90;1.00;;;;;;5014345;28;20211;-63
2021/09/05 11:29:59;;;;;;;15.97;11.23;;;21.90;1.00;;;;;;5014252;28;20203;-63
2021/09/05 11:32:27;;;;;;;17.23;10.93;;;22.10;1.00;;;;;;5014128;28;20211;-64
2021/09/05 11:34:56;;;;;;;14.03;11.77;;;22.10;1.00;;;;;;5013967;28;20627;-65
2021/09/05 11:37:27;;;;;;;16.83;11.47;;;22.10;1.00;;;;;;5013643;28;20227;-64
2021/09/05 11:39:54;;;;;;;14.30;11.03;;;22.10;1.00;;;;;;5014118;28;20221;-65
2021/09/05 11:42:20;;;;;;;14.47;11.17;;;22.20;1.00;;;;;;5013728;28;20207;-66
2021/09/05 11:44:48;;;;;;;13.83;10.80;;;22.40;1.00;;;;;;5013555;28;20300;-65
2021/09/05 11:47:17;;;;;;;14.80;11.00;;;22.50;1.00;;;;;;5013747;28;20204;-64
2021/09/05 11:49:48;;;;;;;14.40;12.00;;;22.60;1.00;;;;;;5013724;28;20211;-65
2021/09/05 11:52:19;;;;;;;15.37;10.97;;;22.50;1.00;;;;;;5013284;28;20742;-65
2021/09/05 11:54:48;;;;;;;16.03;12.20;;;22.60;1.00;;;;;;5013557;28;20281;-64
2021/09/05 11:57:15;;;;;;;16.00;11.83;;;22.60;1.00;;;;;;5013457;28;20712;-65
2021/09/05 11:59:42;;;;;;;18.93;11.20;;;22.70;1.00;;;;;;5013525;28;20257;-64
2021/09/05 12:02:10;;;;;;;14.80;10.87;;;22.80;1.00;;;;;;5013413;28;20215;-64
2021/09/05 12:04:37;;;;;;;16.07;11.70;;;22.70;99.90;;;;;;5012822;28;20242;-64
2021/09/05 12:07:04;;;;;;;15.53;11.73;;;22.50;1.00;;;;;;5013485;28;20207;-65
2021/09/05 12:09:33;;;;;;;15.20;10.70;;;22.50;1.00;;;;;;5013108;28;20203;-64
2021/09/05 12:12:02;;;;;;;17.43;12.80;;;22.50;1.00;;;;;;5013343;28;20213;-63
2021/09/05 12:14:30;;;;;;;19.80;11.23;;;22.40;1.00;;;;;;5012956;28;20231;-64
2021/09/05 12:16:57;;;;;;;15.20;11.77;;;22.60;1.00;;;;;;5013247;28;20732;-64
2021/09/05 12:19:25;;;;;;;15.00;10.70;;;22.80;1.00;;;;;;5013116;28;20277;-65
2021/09/05 12:21:59;;;;;;;15.67;12.00;;;22.90;1.00;;;;;;5013307;28;20211;-64
2021/09/05 12:24:25;;;;;;;16.93;12.13;;;22.90;1.00;;;;;;5012960;28;20230;-64
2021/09/05 12:26:52;;;;;;;16.63;11.50;;;22.90;99.90;;;;;;5012856;28;20207;-65
2021/09/05 12:29:30;;;;;;;15.27;11.17;;;22.90;1.00;;;;;;5012819;28;20562;-64
2021/09/05 12:32:01;;;;;;;13.57;10.60;;;23.00;1.00;;;;;;5012964;28;20242;-64
2021/09/05 12:34:40;;;;;;;16.00;11.63;;;23.10;1.00;;;;;;5012693;28;20258;-65
2021/09/05 12:37:12;;;;;;;16.27;11.47;;;23.20;1.00;;;;;;5012633;28;20233;-64
2021/09/05 12:39:39;;;;;;;14.70;11.47;;;23.30;1.00;;;;;;5012654;28;20214;-65
2021/09/05 12:42:08;;;;;;;14.23;10.57;;;23.40;99.90;;;;;;5012170;28;20704;-65
2021/09/05 12:44:40;;;;;;;16.40;11.53;;;23.50;99.90;;;;;;5012396;28;20257;-65
2021/09/05 12:47:07;;;;;;;16.43;10.90;;;23.50;99.90;;;;;;5012699;28;20207;-65